sensor_id;sensor_type;location;lat;lon;timestamp;temperature;humidity
36458;DHT22;22480;50.546;12.292;2022-09-09T00:00:35;11.80;99.90
36458;DHT22;22480;50.546;12.292;2022-09-09T00:03:14;11.80;99.90
36458;DHT22;22480;50.546;12.292;2022-09-09T00:11:43;11.60;99.90
36458;DHT22;22480;50.546;12.292;2022-09-09T00:14:29;11.60;99.90
36458;DHT22;22480;50.546;12.292;2022-09-09T00:17:02;11.60;99.90
36458;DHT22;22480;50.546;12.292;2022-09-09T00:19:38;11.50;99.90
36458;DHT22;22480;50.546;12.292;2022-09-09T00:24:52;11.60;99.90
36458;DHT22;22480;50.546;12.292;2022-09-09T00:30:21;11.80;99.90
36458;DHT22;22480;50.546;12.292;2022-09-09T00:32:59;11.90;99.90
36458;DHT22;22480;50.546;12.292;2022-09-09T00:35:36;11.90;99.90
36458;DHT22;22480;50.546;12.292;2022-09-09T00:38:21;11.90;99.90
36458;DHT22;22480;50.546;12.292;2022-09-09T00:43:29;11.70;99.90
36458;DHT22;22480;50.546;12.292;2022-09-09T00:48:38;11.50;99.90
36458;DHT22;22480;50.546;12.292;2022-09-09T00:51:17;11.30;99.90
36458;DHT22;22480;50.546;12.292;2022-09-09T00:57:22;11.30;99.90
36458;DHT22;22480;50.546;12.292;2022-09-09T01:02:52;11.40;99.90
36458;DHT22;22480;50.546;12.292;2022-09-09T01:05:44;11.40;99.90
36458;DHT22;22480;50.546;12.292;2022-09-09T01:11:25;11.40;99.90
36458;DHT22;22480;50.546;12.292;2022-09-09T01:16:44;11.50;99.90
36458;DHT22;22480;50.546;12.292;2022-09-09T01:19:20;11.50;99.90
36458;DHT22;22480;50.546;12.292;2022-09-09T01:22:03;11.60;99.90
36458;DHT22;22480;50.546;12.292;2022-09-09T01:24:38;11.70;99.90
36458;DHT22;22480;50.546;12.292;2022-09-09T01:27:37;11.70;99.90
36458;DHT22;22480;50.546;12.292;2022-09-09T01:30:14;11.80;99.90
36458;DHT22;22480;50.546;12.292;2022-09-09T01:32:50;11.80;99.90
36458;DHT22;22480;50.546;12.292;2022-09-09T01:37:59;11.90;99.90
36458;DHT22;22480;50.546;12.292;2022-09-09T01:40:26;11.90;99.90
36458;DHT22;22480;50.546;12.292;2022-09-09T01:42:53;11.90;99.90
36458;DHT22;22480;50.546;12.292;2022-09-09T01:45:20;12.00;99.90
36458;DHT22;22480;50.546;12.292;2022-09-09T01:47:47;11.90;99.90
36458;DHT22;22480;50.546;12.292;2022-09-09T01:50:20;11.80;99.90
36458;DHT22;22480;50.546;12.292;2022-09-09T01:52:50;11.70;99.90
36458;DHT22;22480;50.546;12.292;2022-09-09T01:55:33;11.60;99.90
36458;DHT22;22480;50.546;12.292;2022-09-09T02:00:29;11.50;99.90
36458;DHT22;22480;50.546;12.292;2022-09-09T02:03:15;11.60;99.90
36458;DHT22;22480;50.546;12.292;2022-09-09T02:06:45;11.60;99.90
36458;DHT22;22480;50.546;12.292;2022-09-09T02:08:56;11.60;99.90
36458;DHT22;22480;50.546;12.292;2022-09-09T02:11:26;11.60;99.90
36458;DHT22;22480;50.546;12.292;2022-09-09T02:14:35;11.70;99.90
36458;DHT22;22480;50.546;12.292;2022-09-09T02:17:10;11.70;99.90
36458;DHT22;22480;50.546;12.292;2022-09-09T02:20:12;11.80;99.90
36458;DHT22;22480;50.546;12.292;2022-09-09T02:22:53;11.80;99.90
36458;DHT22;22480;50.546;12.292;2022-09-09T02:25:25;11.80;99.90
36458;DHT22;22480;50.546;12.292;2022-09-09T02:27:55;11.80;99.90
36458;DHT22;22480;50.546;12.292;2022-09-09T02:30:24;11.80;99.90
36458;DHT22;22480;50.546;12.292;2022-09-09T02:32:54;11.70;99.90
36458;DHT22;22480;50.546;12.292;2022-09-09T02:35:38;11.60;99.90
36458;DHT22;22480;50.546;12.292;2022-09-09T02:38:10;11.50;99.90
36458;DHT22;22480;50.546;12.292;2022-09-09T02:40:39;11.50;99.90
36458;DHT22;22480;50.546;12.292;2022-09-09T02:43:05;11.60;99.90
36458;DHT22;22480;50.546;12.292;2022-09-09T02:46:24;11.60;99.90
36458;DHT22;22480;50.546;12.292;2022-09-09T02:48:47;11.60;99.90
36458;DHT22;22480;50.546;12.292;2022-09-09T02:54:27;11.80;99.90
36458;DHT22;22480;50.546;12.292;2022-09-09T02:57:12;11.80;99.90
36458;DHT22;22480;50.546;12.292;2022-09-09T02:59:40;11.90;99.90
36458;DHT22;22480;50.546;12.292;2022-09-09T03:02:08;11.90;99.90
36458;DHT22;22480;50.546;12.292;2022-09-09T03:04:36;11.90;99.90
36458;DHT22;22480;50.546;12.292;2022-09-09T03:07:02;11.90;99.90
36458;DHT22;22480;50.546;12.292;2022-09-09T03:09:29;12.00;99.90
36458;DHT22;22480;50.546;12.292;2022-09-09T03:11:56;12.00;99.90
36458;DHT22;22480;50.546;12.292;2022-09-09T03:14:23;12.00;99.90
36458;DHT22;22480;50.546;12.292;2022-09-09T03:16:52;12.00;99.90
36458;DHT22;22480;50.546;12.292;2022-09-09T03:19:18;12.10;99.90
36458;DHT22;22480;50.546;12.292;2022-09-09T03:21:45;12.10;99.90
36458;DHT22;22480;50.546;12.292;2022-09-09T03:24:12;12.10;99.90
36458;DHT22;22480;50.546;12.292;2022-09-09T03:26:38;12.10;99.90
36458;DHT22;22480;50.546;12.292;2022-09-09T03:29:08;12.00;99.90
36458;DHT22;22480;50.546;12.292;2022-09-09T03:31:34;12.00;99.90
36458;DHT22;22480;50.546;12.292;2022-09-09T03:34:02;12.00;99.90
36458;DHT22;22480;50.546;12.292;2022-09-09T03:36:31;11.90;99.90
36458;DHT22;22480;50.546;12.292;2022-09-09T03:38:57;11.80;99.90
36458;DHT22;22480;50.546;12.292;2022-09-09T03:41:26;11.80;99.90
36458;DHT22;22480;50.546;12.292;2022-09-09T03:43:52;11.80;99.90
36458;DHT22;22480;50.546;12.292;2022-09-09T03:46:24;11.80;99.90
36458;DHT22;22480;50.546;12.292;2022-09-09T03:48:50;11.80;99.90
36458;DHT22;22480;50.546;12.292;2022-09-09T03:51:18;11.80;99.90
36458;DHT22;22480;50.546;12.292;2022-09-09T03:53:45;11.90;99.90
36458;DHT22;22480;50.546;12.292;2022-09-09T03:56:11;11.80;99.90
36458;DHT22;22480;50.546;12.292;2022-09-09T03:58:37;11.90;99.90
36458;DHT22;22480;50.546;12.292;2022-09-09T04:01:13;11.80;99.90
36458;DHT22;22480;50.546;12.292;2022-09-09T04:03:41;11.80;99.90
36458;DHT22;22480;50.546;12.292;2022-09-09T04:06:09;11.70;99.90
36458;DHT22;22480;50.546;12.292;2022-09-09T04:08:36;11.70;99.90
36458;DHT22;22480;50.546;12.292;2022-09-09T04:11:03;11.70;99.90
36458;DHT22;22480;50.546;12.292;2022-09-09T04:13:35;11.70;99.90
36458;DHT22;22480;50.546;12.292;2022-09-09T04:16:03;11.60;99.90
36458;DHT22;22480;50.546;12.292;2022-09-09T04:18:30;11.70;99.90
36458;DHT22;22480;50.546;12.292;2022-09-09T04:20:56;11.70;99.90
36458;DHT22;22480;50.546;12.292;2022-09-09T04:23:26;11.70;99.90
36458;DHT22;22480;50.546;12.292;2022-09-09T04:25:55;11.70;99.90
36458;DHT22;22480;50.546;12.292;2022-09-09T04:28:22;11.70;99.90
36458;DHT22;22480;50.546;12.292;2022-09-09T04:30:49;11.70;99.90
36458;DHT22;22480;50.546;12.292;2022-09-09T04:33:15;11.80;99.90
36458;DHT22;22480;50.546;12.292;2022-09-09T04:35:47;11.90;99.90
36458;DHT22;22480;50.546;12.292;2022-09-09T04:38:15;12.10;99.90
36458;DHT22;22480;50.546;12.292;2022-09-09T04:40:46;12.40;99.90
36458;DHT22;22480;50.546;12.292;2022-09-09T04:43:13;12.50;99.90
36458;DHT22;22480;50.546;12.292;2022-09-09T04:45:43;12.70;99.90
36458;DHT22;22480;50.546;12.292;2022-09-09T04:48:10;12.90;99.90
36458;DHT22;22480;50.546;12.292;2022-09-09T04:50:35;13.00;99.90
36458;DHT22;22480;50.546;12.292;2022-09-09T04:53:02;13.10;99.90
36458;DHT22;22480;50.546;12.292;2022-09-09T04:55:29;13.10;99.90
36458;DHT22;22480;50.546;12.292;2022-09-09T04:57:55;13.10;99.90
36458;DHT22;22480;50.546;12.292;2022-09-09T05:00:23;13.10;99.90
36458;DHT22;22480;50.546;12.292;2022-09-09T05:02:49;13.10;99.90
36458;DHT22;22480;50.546;12.292;2022-09-09T05:05:15;13.10;99.90
36458;DHT22;22480;50.546;12.292;2022-09-09T05:07:41;13.20;99.90
36458;DHT22;22480;50.546;12.292;2022-09-09T05:10:07;13.20;99.90
36458;DHT22;22480;50.546;12.292;2022-09-09T05:12:33;13.30;99.90
36458;DHT22;22480;50.546;12.292;2022-09-09T05:14:59;13.40;99.90
36458;DHT22;22480;50.546;12.292;2022-09-09T05:17:25;13.40;99.90
36458;DHT22;22480;50.546;12.292;2022-09-09T05:19:51;13.60;99.90
36458;DHT22;22480;50.546;12.292;2022-09-09T05:22:20;13.70;99.90
36458;DHT22;22480;50.546;12.292;2022-09-09T05:24:47;13.80;99.90
36458;DHT22;22480;50.546;12.292;2022-09-09T05:27:17;13.90;99.90
36458;DHT22;22480;50.546;12.292;2022-09-09T05:29:45;14.00;99.90
36458;DHT22;22480;50.546;12.292;2022-09-09T05:32:12;14.10;99.90
36458;DHT22;22480;50.546;12.292;2022-09-09T05:34:40;14.30;99.90
36458;DHT22;22480;50.546;12.292;2022-09-09T05:37:06;14.50;99.90
36458;DHT22;22480;50.546;12.292;2022-09-09T05:39:34;14.60;99.90
36458;DHT22;22480;50.546;12.292;2022-09-09T05:42:02;14.60;99.90
36458;DHT22;22480;50.546;12.292;2022-09-09T05:44:30;14.80;99.90
36458;DHT22;22480;50.546;12.292;2022-09-09T05:46:56;14.90;99.90
36458;DHT22;22480;50.546;12.292;2022-09-09T05:49:24;15.00;99.90
36458;DHT22;22480;50.546;12.292;2022-09-09T05:51:50;15.10;99.90
36458;DHT22;22480;50.546;12.292;2022-09-09T05:54:17;15.30;99.90
36458;DHT22;22480;50.546;12.292;2022-09-09T05:56:47;15.40;99.90
36458;DHT22;22480;50.546;12.292;2022-09-09T05:59:16;15.50;99.90
36458;DHT22;22480;50.546;12.292;2022-09-09T06:01:42;15.60;99.90
36458;DHT22;22480;50.546;12.292;2022-09-09T06:04:15;15.80;99.90
36458;DHT22;22480;50.546;12.292;2022-09-09T06:06:41;15.90;99.90
36458;DHT22;22480;50.546;12.292;2022-09-09T06:09:11;16.00;99.90
36458;DHT22;22480;50.546;12.292;2022-09-09T06:11:41;16.10;99.90
36458;DHT22;22480;50.546;12.292;2022-09-09T06:14:08;16.20;99.90
36458;DHT22;22480;50.546;12.292;2022-09-09T06:16:35;16.40;99.90
36458;DHT22;22480;50.546;12.292;2022-09-09T06:19:04;16.80;99.90
36458;DHT22;22480;50.546;12.292;2022-09-09T06:21:35;17.10;99.90
36458;DHT22;22480;50.546;12.292;2022-09-09T06:24:04;17.20;99.90
36458;DHT22;22480;50.546;12.292;2022-09-09T06:26:34;17.10;99.90
36458;DHT22;22480;50.546;12.292;2022-09-09T06:29:03;17.20;99.90
36458;DHT22;22480;50.546;12.292;2022-09-09T06:31:31;17.40;99.90
36458;DHT22;22480;50.546;12.292;2022-09-09T06:34:02;17.60;99.90
36458;DHT22;22480;50.546;12.292;2022-09-09T06:36:32;18.00;99.90
36458;DHT22;22480;50.546;12.292;2022-09-09T06:38:58;18.50;99.90
36458;DHT22;22480;50.546;12.292;2022-09-09T06:41:29;19.00;99.90
36458;DHT22;22480;50.546;12.292;2022-09-09T06:43:56;19.20;99.90
36458;DHT22;22480;50.546;12.292;2022-09-09T06:46:31;19.20;99.90
36458;DHT22;22480;50.546;12.292;2022-09-09T06:48:59;19.10;99.90
36458;DHT22;22480;50.546;12.292;2022-09-09T06:51:31;19.00;99.90
36458;DHT22;22480;50.546;12.292;2022-09-09T06:53:58;18.80;99.90
36458;DHT22;22480;50.546;12.292;2022-09-09T06:56:30;18.70;99.90
36458;DHT22;22480;50.546;12.292;2022-09-09T06:59:00;18.50;99.90
36458;DHT22;22480;50.546;12.292;2022-09-09T07:01:35;18.30;99.90
36458;DHT22;22480;50.546;12.292;2022-09-09T07:04:05;18.20;99.90
36458;DHT22;22480;50.546;12.292;2022-09-09T07:06:45;18.20;99.90
36458;DHT22;22480;50.546;12.292;2022-09-09T07:09:16;18.20;99.90
36458;DHT22;22480;50.546;12.292;2022-09-09T07:11:50;18.20;99.90
36458;DHT22;22480;50.546;12.292;2022-09-09T07:14:19;18.20;99.90
36458;DHT22;22480;50.546;12.292;2022-09-09T07:16:48;18.10;99.90
36458;DHT22;22480;50.546;12.292;2022-09-09T07:19:16;18.10;99.90
36458;DHT22;22480;50.546;12.292;2022-09-09T07:21:44;18.20;99.90
36458;DHT22;22480;50.546;12.292;2022-09-09T07:24:13;18.20;99.90
36458;DHT22;22480;50.546;12.292;2022-09-09T07:26:41;18.40;99.90
36458;DHT22;22480;50.546;12.292;2022-09-09T07:29:08;18.60;99.90
36458;DHT22;22480;50.546;12.292;2022-09-09T07:31:36;18.60;99.90
36458;DHT22;22480;50.546;12.292;2022-09-09T07:34:05;18.80;99.90
36458;DHT22;22480;50.546;12.292;2022-09-09T07:36:40;18.90;99.90
36458;DHT22;22480;50.546;12.292;2022-09-09T07:39:10;18.90;99.90
36458;DHT22;22480;50.546;12.292;2022-09-09T07:41:48;19.00;99.90
36458;DHT22;22480;50.546;12.292;2022-09-09T07:44:19;19.00;99.90
36458;DHT22;22480;50.546;12.292;2022-09-09T07:46:49;19.00;99.90
36458;DHT22;22480;50.546;12.292;2022-09-09T07:49:19;19.10;99.90
36458;DHT22;22480;50.546;12.292;2022-09-09T07:51:46;19.30;99.90
36458;DHT22;22480;50.546;12.292;2022-09-09T07:54:16;19.30;99.90
36458;DHT22;22480;50.546;12.292;2022-09-09T07:56:47;19.40;99.90
36458;DHT22;22480;50.546;12.292;2022-09-09T07:59:13;19.60;99.90
36458;DHT22;22480;50.546;12.292;2022-09-09T08:01:43;19.70;99.90
36458;DHT22;22480;50.546;12.292;2022-09-09T08:04:17;19.90;99.90
36458;DHT22;22480;50.546;12.292;2022-09-09T08:06:56;20.10;99.90
36458;DHT22;22480;50.546;12.292;2022-09-09T08:09:25;20.20;99.90
36458;DHT22;22480;50.546;12.292;2022-09-09T08:11:53;20.30;99.90
36458;DHT22;22480;50.546;12.292;2022-09-09T08:14:19;20.40;99.90
36458;DHT22;22480;50.546;12.292;2022-09-09T08:16:48;20.60;99.90
36458;DHT22;22480;50.546;12.292;2022-09-09T08:19:18;20.60;99.90
36458;DHT22;22480;50.546;12.292;2022-09-09T08:21:45;20.30;99.90
36458;DHT22;22480;50.546;12.292;2022-09-09T08:24:13;19.90;99.90
36458;DHT22;22480;50.546;12.292;2022-09-09T08:26:47;19.70;99.90
36458;DHT22;22480;50.546;12.292;2022-09-09T08:29:15;19.30;99.90
36458;DHT22;22480;50.546;12.292;2022-09-09T08:31:45;19.10;99.90
36458;DHT22;22480;50.546;12.292;2022-09-09T08:34:12;19.10;99.90
36458;DHT22;22480;50.546;12.292;2022-09-09T08:36:46;18.90;99.90
36458;DHT22;22480;50.546;12.292;2022-09-09T08:39:17;18.90;99.90
36458;DHT22;22480;50.546;12.292;2022-09-09T08:44:40;20.00;99.90
36458;DHT22;22480;50.546;12.292;2022-09-09T08:58:19;22.00;99.90
36458;DHT22;22480;50.546;12.292;2022-09-09T09:01:28;22.50;99.90
36458;DHT22;22480;50.546;12.292;2022-09-09T09:04:20;22.60;99.90
36458;DHT22;22480;50.546;12.292;2022-09-09T09:07:16;22.60;99.90
36458;DHT22;22480;50.546;12.292;2022-09-09T09:10:42;23.00;99.90
36458;DHT22;22480;50.546;12.292;2022-09-09T09:13:45;22.90;97.30
36458;DHT22;22480;50.546;12.292;2022-09-09T09:18:50;22.80;96.10
36458;DHT22;22480;50.546;12.292;2022-09-09T09:21:38;22.60;97.50
36458;DHT22;22480;50.546;12.292;2022-09-09T09:24:12;22.40;97.50
36458;DHT22;22480;50.546;12.292;2022-09-09T09:26:42;21.90;97.90
36458;DHT22;22480;50.546;12.292;2022-09-09T09:29:15;21.60;99.00
36458;DHT22;22480;50.546;12.292;2022-09-09T09:31:54;21.70;99.60
36458;DHT22;22480;50.546;12.292;2022-09-09T09:34:22;21.70;98.20
36458;DHT22;22480;50.546;12.292;2022-09-09T09:36:55;22.30;99.40
36458;DHT22;22480;50.546;12.292;2022-09-09T09:39:28;22.80;97.80
36458;DHT22;22480;50.546;12.292;2022-09-09T09:41:57;23.50;96.10
36458;DHT22;22480;50.546;12.292;2022-09-09T09:44:32;24.30;94.30
36458;DHT22;22480;50.546;12.292;2022-09-09T09:47:08;23.90;94.10
36458;DHT22;22480;50.546;12.292;2022-09-09T09:49:34;23.00;95.30
36458;DHT22;22480;50.546;12.292;2022-09-09T09:52:02;22.80;94.40
36458;DHT22;22480;50.546;12.292;2022-09-09T09:54:34;22.50;96.40
36458;DHT22;22480;50.546;12.292;2022-09-09T09:57:16;21.90;97.90
36458;DHT22;22480;50.546;12.292;2022-09-09T09:59:44;21.80;98.90
36458;DHT22;22480;50.546;12.292;2022-09-09T10:02:24;21.60;99.50
36458;DHT22;22480;50.546;12.292;2022-09-09T10:05:03;21.70;98.50
36458;DHT22;22480;50.546;12.292;2022-09-09T10:07:31;21.60;98.80
36458;DHT22;22480;50.546;12.292;2022-09-09T10:09:57;21.60;99.30
36458;DHT22;22480;50.546;12.292;2022-09-09T10:15:51;22.60;98.70
36458;DHT22;22480;50.546;12.292;2022-09-09T10:24:12;25.00;94.20
36458;DHT22;22480;50.546;12.292;2022-09-09T10:32:57;24.30;91.10
36458;DHT22;22480;50.546;12.292;2022-09-09T10:37:46;24.90;90.70
36458;DHT22;22480;50.546;12.292;2022-09-09T10:43:28;25.90;81.70
36458;DHT22;22480;50.546;12.292;2022-09-09T10:46:07;26.60;78.40
36458;DHT22;22480;50.546;12.292;2022-09-09T10:51:40;26.90;75.30
36458;DHT22;22480;50.546;12.292;2022-09-09T10:56:56;26.80;70.30
36458;DHT22;22480;50.546;12.292;2022-09-09T10:59:31;26.50;72.00
36458;DHT22;22480;50.546;12.292;2022-09-09T11:02:20;26.00;70.50
36458;DHT22;22480;50.546;12.292;2022-09-09T11:07:48;25.70;72.00
36458;DHT22;22480;50.546;12.292;2022-09-09T11:10:40;26.30;70.80
36458;DHT22;22480;50.546;12.292;2022-09-09T11:13:20;26.40;67.60
36458;DHT22;22480;50.546;12.292;2022-09-09T11:15:53;25.30;69.90
36458;DHT22;22480;50.546;12.292;2022-09-09T11:18:21;24.20;73.30
36458;DHT22;22480;50.546;12.292;2022-09-09T11:20:59;23.70;74.60
36458;DHT22;22480;50.546;12.292;2022-09-09T11:26:04;24.60;72.30
36458;DHT22;22480;50.546;12.292;2022-09-09T11:29:08;24.90;71.30
36458;DHT22;22480;50.546;12.292;2022-09-09T11:32:12;25.40;73.90
36458;DHT22;22480;50.546;12.292;2022-09-09T11:35:10;26.00;71.00
36458;DHT22;22480;50.546;12.292;2022-09-09T11:40:16;27.00;69.40
36458;DHT22;22480;50.546;12.292;2022-09-09T11:42:43;27.70;65.90
36458;DHT22;22480;50.546;12.292;2022-09-09T11:45:29;27.70;68.70
36458;DHT22;22480;50.546;12.292;2022-09-09T11:47:58;27.70;65.80
36458;DHT22;22480;50.546;12.292;2022-09-09T11:52:50;26.60;66.60
36458;DHT22;22480;50.546;12.292;2022-09-09T11:55:28;26.90;69.60
36458;DHT22;22480;50.546;12.292;2022-09-09T11:58:03;27.10;67.20
36458;DHT22;22480;50.546;12.292;2022-09-09T12:00:36;26.30;68.40
36458;DHT22;22480;50.546;12.292;2022-09-09T12:03:04;25.60;68.40
36458;DHT22;22480;50.546;12.292;2022-09-09T12:05:39;25.30;68.50
36458;DHT22;22480;50.546;12.292;2022-09-09T12:08:06;24.80;70.10
36458;DHT22;22480;50.546;12.292;2022-09-09T12:10:39;25.00;68.80
36458;DHT22;22480;50.546;12.292;2022-09-09T12:13:20;26.00;68.90
36458;DHT22;22480;50.546;12.292;2022-09-09T12:15:52;26.80;68.50
36458;DHT22;22480;50.546;12.292;2022-09-09T12:18:36;27.20;64.50
36458;DHT22;22480;50.546;12.292;2022-09-09T12:24:07;27.80;64.40
36458;DHT22;22480;50.546;12.292;2022-09-09T12:26:50;27.60;62.70
36458;DHT22;22480;50.546;12.292;2022-09-09T12:31:56;27.60;61.80
36458;DHT22;22480;50.546;12.292;2022-09-09T12:34:47;27.60;63.70
36458;DHT22;22480;50.546;12.292;2022-09-09T12:37:36;27.50;62.80
36458;DHT22;22480;50.546;12.292;2022-09-09T12:40:23;27.90;62.30
36458;DHT22;22480;50.546;12.292;2022-09-09T12:42:49;28.20;61.20
36458;DHT22;22480;50.546;12.292;2022-09-09T12:45:20;27.60;59.60
36458;DHT22;22480;50.546;12.292;2022-09-09T12:47:58;27.70;61.90
36458;DHT22;22480;50.546;12.292;2022-09-09T12:50:48;27.80;61.30
36458;DHT22;22480;50.546;12.292;2022-09-09T12:53:50;28.10;60.30
36458;DHT22;22480;50.546;12.292;2022-09-09T12:56:19;28.20;60.90
36458;DHT22;22480;50.546;12.292;2022-09-09T12:58:47;28.40;61.10
36458;DHT22;22480;50.546;12.292;2022-09-09T13:03:51;29.10;56.50
36458;DHT22;22480;50.546;12.292;2022-09-09T13:06:28;28.80;57.70
36458;DHT22;22480;50.546;12.292;2022-09-09T13:08:57;29.00;57.90
36458;DHT22;22480;50.546;12.292;2022-09-09T13:11:31;28.60;57.70
36458;DHT22;22480;50.546;12.292;2022-09-09T13:13:59;29.00;58.10
36458;DHT22;22480;50.546;12.292;2022-09-09T13:16:33;28.90;58.50
36458;DHT22;22480;50.546;12.292;2022-09-09T13:19:08;29.00;59.40
36458;DHT22;22480;50.546;12.292;2022-09-09T13:21:36;29.10;58.60
36458;DHT22;22480;50.546;12.292;2022-09-09T13:24:04;29.30;59.50
36458;DHT22;22480;50.546;12.292;2022-09-09T13:26:34;29.70;57.60
36458;DHT22;22480;50.546;12.292;2022-09-09T13:29:19;29.80;55.80
36458;DHT22;22480;50.546;12.292;2022-09-09T13:31:45;29.40;57.10
36458;DHT22;22480;50.546;12.292;2022-09-09T13:36:55;26.20;61.70
36458;DHT22;22480;50.546;12.292;2022-09-09T13:39:21;24.70;64.60
36458;DHT22;22480;50.546;12.292;2022-09-09T13:41:48;23.70;66.70
36458;DHT22;22480;50.546;12.292;2022-09-09T13:44:19;23.40;71.50
36458;DHT22;22480;50.546;12.292;2022-09-09T13:46:45;22.90;72.90
36458;DHT22;22480;50.546;12.292;2022-09-09T13:51:49;22.30;75.40
36458;DHT22;22480;50.546;12.292;2022-09-09T13:54:18;22.60;78.90
36458;DHT22;22480;50.546;12.292;2022-09-09T13:56:45;24.20;75.00
36458;DHT22;22480;50.546;12.292;2022-09-09T13:59:20;25.80;69.90
36458;DHT22;22480;50.546;12.292;2022-09-09T14:01:46;26.30;67.50
36458;DHT22;22480;50.546;12.292;2022-09-09T14:04:11;25.90;67.20
36458;DHT22;22480;50.546;12.292;2022-09-09T14:06:38;25.40;69.80
36458;DHT22;22480;50.546;12.292;2022-09-09T14:09:06;24.70;69.40
36458;DHT22;22480;50.546;12.292;2022-09-09T14:11:31;24.10;72.00
36458;DHT22;22480;50.546;12.292;2022-09-09T14:13:57;23.40;72.60
36458;DHT22;22480;50.546;12.292;2022-09-09T14:16:23;22.80;75.20
36458;DHT22;22480;50.546;12.292;2022-09-09T14:18:48;22.20;76.50
36458;DHT22;22480;50.546;12.292;2022-09-09T14:21:14;21.70;78.50
36458;DHT22;22480;50.546;12.292;2022-09-09T14:23:41;21.20;79.10
36458;DHT22;22480;50.546;12.292;2022-09-09T14:26:08;20.80;79.10
36458;DHT22;22480;50.546;12.292;2022-09-09T14:28:35;20.50;79.00
36458;DHT22;22480;50.546;12.292;2022-09-09T14:31:02;20.20;79.90
36458;DHT22;22480;50.546;12.292;2022-09-09T14:33:29;19.90;81.00
36458;DHT22;22480;50.546;12.292;2022-09-09T14:36:00;19.70;83.10
36458;DHT22;22480;50.546;12.292;2022-09-09T14:38:31;19.50;85.00
36458;DHT22;22480;50.546;12.292;2022-09-09T14:40:56;19.30;85.80
36458;DHT22;22480;50.546;12.292;2022-09-09T14:43:24;19.20;87.70
36458;DHT22;22480;50.546;12.292;2022-09-09T14:45:49;19.00;91.50
36458;DHT22;22480;50.546;12.292;2022-09-09T14:48:17;18.70;96.40
36458;DHT22;22480;50.546;12.292;2022-09-09T14:50:42;17.80;99.90
36458;DHT22;22480;50.546;12.292;2022-09-09T14:53:09;17.00;99.90
36458;DHT22;22480;50.546;12.292;2022-09-09T14:55:36;16.40;99.90
36458;DHT22;22480;50.546;12.292;2022-09-09T14:58:02;16.00;99.90
36458;DHT22;22480;50.546;12.292;2022-09-09T15:00:28;15.70;99.90
36458;DHT22;22480;50.546;12.292;2022-09-09T15:02:54;15.50;99.90
36458;DHT22;22480;50.546;12.292;2022-09-09T15:05:20;15.40;99.90
36458;DHT22;22480;50.546;12.292;2022-09-09T15:07:46;15.30;99.90
36458;DHT22;22480;50.546;12.292;2022-09-09T15:10:13;15.60;99.90
36458;DHT22;22480;50.546;12.292;2022-09-09T15:12:39;16.20;99.90
36458;DHT22;22480;50.546;12.292;2022-09-09T15:15:05;17.10;99.90
36458;DHT22;22480;50.546;12.292;2022-09-09T15:17:31;17.90;99.90
36458;DHT22;22480;50.546;12.292;2022-09-09T15:19:57;18.40;99.90
36458;DHT22;22480;50.546;12.292;2022-09-09T15:22:23;18.50;99.90
36458;DHT22;22480;50.546;12.292;2022-09-09T15:24:50;19.20;99.90
36458;DHT22;22480;50.546;12.292;2022-09-09T15:27:15;20.30;99.90
36458;DHT22;22480;50.546;12.292;2022-09-09T15:29:41;21.20;99.90
36458;DHT22;22480;50.546;12.292;2022-09-09T15:32:07;22.10;99.90
36458;DHT22;22480;50.546;12.292;2022-09-09T15:34:33;22.80;99.90
36458;DHT22;22480;50.546;12.292;2022-09-09T15:36:59;23.00;99.90
36458;DHT22;22480;50.546;12.292;2022-09-09T15:39:27;22.60;99.90
36458;DHT22;22480;50.546;12.292;2022-09-09T15:41:53;21.70;99.90
36458;DHT22;22480;50.546;12.292;2022-09-09T15:44:19;21.00;99.90
36458;DHT22;22480;50.546;12.292;2022-09-09T15:46:48;21.00;99.90
36458;DHT22;22480;50.546;12.292;2022-09-09T15:49:16;21.10;99.90
36458;DHT22;22480;50.546;12.292;2022-09-09T15:51:47;21.30;99.90
36458;DHT22;22480;50.546;12.292;2022-09-09T15:54:20;22.00;99.90
36458;DHT22;22480;50.546;12.292;2022-09-09T15:56:51;22.50;99.90
36458;DHT22;22480;50.546;12.292;2022-09-09T15:59:17;23.00;99.90
36458;DHT22;22480;50.546;12.292;2022-09-09T16:01:43;23.60;99.90
36458;DHT22;22480;50.546;12.292;2022-09-09T16:04:09;24.20;99.90
36458;DHT22;22480;50.546;12.292;2022-09-09T16:06:35;24.50;98.60
36458;DHT22;22480;50.546;12.292;2022-09-09T16:09:04;24.40;99.90
36458;DHT22;22480;50.546;12.292;2022-09-09T16:11:33;24.80;99.30
36458;DHT22;22480;50.546;12.292;2022-09-09T16:14:00;25.00;95.10
36458;DHT22;22480;50.546;12.292;2022-09-09T16:16:28;25.00;98.00
36458;DHT22;22480;50.546;12.292;2022-09-09T16:18:57;25.20;93.80
36458;DHT22;22480;50.546;12.292;2022-09-09T16:21:28;24.90;92.30
36458;DHT22;22480;50.546;12.292;2022-09-09T16:23:56;24.60;86.70
36458;DHT22;22480;50.546;12.292;2022-09-09T16:26:22;24.10;91.10
36458;DHT22;22480;50.546;12.292;2022-09-09T16:28:49;23.70;90.70
36458;DHT22;22480;50.546;12.292;2022-09-09T16:31:21;23.60;92.60
36458;DHT22;22480;50.546;12.292;2022-09-09T16:33:47;23.50;93.20
36458;DHT22;22480;50.546;12.292;2022-09-09T16:36:15;23.40;91.10
36458;DHT22;22480;50.546;12.292;2022-09-09T16:38:42;23.20;90.50
36458;DHT22;22480;50.546;12.292;2022-09-09T16:41:09;22.60;92.80
36458;DHT22;22480;50.546;12.292;2022-09-09T16:43:36;22.60;95.30
36458;DHT22;22480;50.546;12.292;2022-09-09T16:46:03;22.60;93.50
36458;DHT22;22480;50.546;12.292;2022-09-09T16:48:33;22.50;94.50
36458;DHT22;22480;50.546;12.292;2022-09-09T16:51:05;21.90;93.10
36458;DHT22;22480;50.546;12.292;2022-09-09T16:53:32;20.90;96.70
36458;DHT22;22480;50.546;12.292;2022-09-09T16:55:57;20.20;98.30
36458;DHT22;22480;50.546;12.292;2022-09-09T16:58:23;19.60;99.90
36458;DHT22;22480;50.546;12.292;2022-09-09T17:00:49;19.00;99.90
36458;DHT22;22480;50.546;12.292;2022-09-09T17:03:16;18.40;99.90
36458;DHT22;22480;50.546;12.292;2022-09-09T17:05:42;17.80;99.90
36458;DHT22;22480;50.546;12.292;2022-09-09T17:08:09;17.30;99.90
36458;DHT22;22480;50.546;12.292;2022-09-09T17:10:40;16.80;99.90
36458;DHT22;22480;50.546;12.292;2022-09-09T17:13:07;16.40;99.90
36458;DHT22;22480;50.546;12.292;2022-09-09T17:15:32;16.20;99.90
36458;DHT22;22480;50.546;12.292;2022-09-09T17:17:59;15.90;99.90
36458;DHT22;22480;50.546;12.292;2022-09-09T17:20:25;15.70;99.90
36458;DHT22;22480;50.546;12.292;2022-09-09T17:22:51;15.50;99.90
36458;DHT22;22480;50.546;12.292;2022-09-09T17:25:17;15.40;99.90